createdAt,value
2018-01-22T00:00:27.222Z,15.40
2018-01-22T00:02:54.702Z,10.87
2018-01-22T00:05:22.929Z,12.77
2018-01-22T00:07:50.463Z,14.23
2018-01-22T00:10:17.926Z,11.00
2018-01-22T00:12:45.387Z,11.00
2018-01-22T00:15:12.869Z,8.10
2018-01-22T00:17:40.331Z,11.93
2018-01-22T00:20:07.816Z,12.20
2018-01-22T00:22:36.049Z,10.30
2018-01-22T00:25:03.535Z,11.83
2018-01-22T00:27:31.059Z,9.97
2018-01-22T00:29:58.524Z,12.80
2018-01-22T00:32:26.014Z,14.03
2018-01-22T00:34:54.284Z,11.63
2018-01-22T00:37:21.730Z,14.40
2018-01-22T00:39:49.182Z,9.00
2018-01-22T00:42:16.656Z,13.03
2018-01-22T00:44:44.878Z,11.37
2018-01-22T00:47:12.346Z,16.40
2018-01-22T00:49:39.809Z,14.23
2018-01-22T00:52:07.273Z,11.87
2018-01-22T00:54:34.753Z,14.83
2018-01-22T00:57:02.993Z,13.50
2018-01-22T00:59:30.525Z,14.80
2018-01-22T01:01:57.990Z,16.57
2018-01-22T01:04:25.465Z,10.17
2018-01-22T01:06:52.938Z,13.23
2018-01-22T01:09:20.421Z,12.57
2018-01-22T01:11:48.645Z,15.47
2018-01-22T01:14:16.130Z,16.50
2018-01-22T01:16:43.602Z,18.63
2018-01-22T01:19:11.827Z,19.97
2018-01-22T01:21:39.385Z,15.50
2018-01-22T01:24:06.852Z,12.73
2018-01-22T01:26:34.330Z,15.57
2018-01-22T01:29:02.590Z,13.80
2018-01-22T01:31:30.049Z,14.23
2018-01-22T01:33:57.511Z,14.77
2018-01-22T01:36:24.993Z,12.23
2018-01-22T01:38:53.226Z,14.87
2018-01-22T01:41:20.712Z,15.90
2018-01-22T01:43:48.180Z,18.43
2018-01-22T01:46:16.400Z,13.40
2018-01-22T01:48:55.830Z,17.03
2018-01-22T01:51:23.310Z,18.17
2018-01-22T01:53:50.788Z,15.67
2018-01-22T01:56:18.257Z,16.03
2018-01-22T01:58:45.737Z,16.43
2018-01-22T02:01:13.201Z,13.97
2018-01-22T02:03:40.686Z,12.40
2018-01-22T02:06:08.175Z,13.60
2018-01-22T02:08:35.633Z,11.17
2018-01-22T02:11:03.093Z,14.90
2018-01-22T02:13:31.346Z,13.27
2018-01-22T02:15:58.810Z,15.77
2018-01-22T02:18:26.289Z,16.90
2018-01-22T02:20:54.533Z,12.57
2018-01-22T02:23:21.994Z,13.17
2018-01-22T02:25:49.470Z,12.80
2018-01-22T02:28:17.697Z,14.00
2018-01-22T02:30:45.173Z,15.10
2018-01-22T02:33:12.637Z,13.20
2018-01-22T02:35:40.114Z,14.80
2018-01-22T02:38:08.333Z,12.10
2018-01-22T02:40:35.813Z,11.20
2018-01-22T02:43:03.273Z,11.50
2018-01-22T02:45:30.753Z,13.47
2018-01-22T02:47:58.224Z,13.53
2018-01-22T02:50:26.458Z,15.77
2018-01-22T02:52:53.933Z,9.80
2018-01-22T02:55:21.401Z,14.20
2018-01-22T02:57:48.877Z,10.60
2018-01-22T03:00:17.138Z,12.10
2018-01-22T03:02:45.394Z,9.57
2018-01-22T03:05:13.633Z,12.87
2018-01-22T03:07:41.109Z,13.63
2018-01-22T03:10:08.585Z,12.90
2018-01-22T03:12:36.061Z,20.00
2018-01-22T03:15:04.297Z,20.40
2018-01-22T03:17:31.765Z,17.27
2018-01-22T03:19:59.222Z,13.20
2018-01-22T03:22:26.786Z,14.33
2018-01-22T03:24:54.241Z,18.23
2018-01-22T03:27:21.705Z,20.23
2018-01-22T03:29:49.314Z,22.47
2018-01-22T03:32:16.772Z,19.63
2018-01-22T03:34:44.250Z,17.93
2018-01-22T03:37:11.714Z,17.40
2018-01-22T03:39:39.193Z,17.60
2018-01-22T03:42:06.654Z,15.63
2018-01-22T03:44:34.902Z,13.57
2018-01-22T03:47:02.361Z,13.77
2018-01-22T03:49:29.833Z,12.37
2018-01-22T03:51:57.299Z,13.63
2018-01-22T03:54:25.546Z,14.73
2018-01-22T03:56:53.005Z,12.03
2018-01-22T03:59:20.465Z,13.37
2018-01-22T04:01:47.954Z,16.43
2018-01-22T04:04:16.178Z,15.00
2018-01-22T04:06:43.657Z,15.10
2018-01-22T04:09:11.121Z,13.97
2018-01-22T04:11:38.629Z,16.70
2018-01-22T04:14:06.189Z,17.30
2018-01-22T04:16:33.662Z,17.90
2018-01-22T04:19:01.131Z,20.20
2018-01-22T04:21:28.609Z,14.57
2018-01-22T04:23:56.857Z,14.47
2018-01-22T04:26:24.317Z,16.67
2018-01-22T04:28:51.825Z,17.20
2018-01-22T04:31:19.303Z,18.43
2018-01-22T04:33:46.761Z,17.67
2018-01-22T04:36:14.246Z,16.03
2018-01-22T04:38:41.710Z,16.50
2018-01-22T04:41:09.182Z,18.00
2018-01-22T04:43:36.638Z,14.07
2018-01-22T04:46:04.881Z,16.87
2018-01-22T04:48:32.349Z,17.00
2018-01-22T04:50:59.806Z,16.97
2018-01-22T04:53:27.273Z,17.50
2018-01-22T04:55:54.733Z,15.63
2018-01-22T04:58:22.208Z,16.70
2018-01-22T05:00:50.433Z,18.07
2018-01-22T05:03:17.910Z,15.90
2018-01-22T05:05:45.386Z,17.90
2018-01-22T05:08:12.866Z,17.27
2018-01-22T05:10:41.101Z,19.40
2018-01-22T05:13:08.570Z,19.83
2018-01-22T05:15:36.053Z,18.80
2018-01-22T05:18:03.526Z,19.57
2018-01-22T05:20:30.998Z,19.60
2018-01-22T05:22:58.477Z,17.50
2018-01-22T05:25:25.985Z,17.40
2018-01-22T05:27:53.413Z,23.23
2018-01-22T05:30:21.659Z,20.00
2018-01-22T05:32:49.740Z,21.60
2018-01-22T05:35:17.202Z,20.03
2018-01-22T05:37:44.665Z,20.40
2018-01-22T05:40:12.145Z,22.53
2018-01-22T05:42:40.371Z,20.03
2018-01-22T05:45:07.849Z,22.20
2018-01-22T05:47:35.310Z,23.27
2018-01-22T05:50:02.789Z,24.53
2018-01-22T05:52:31.027Z,24.50
2018-01-22T05:54:58.502Z,24.70
2018-01-22T05:57:26.729Z,20.93
2018-01-22T05:59:54.210Z,22.20
2018-01-22T06:02:21.674Z,22.90
2018-01-22T06:04:49.141Z,25.43
2018-01-22T06:07:17.389Z,20.37
2018-01-22T06:09:44.868Z,21.77
2018-01-22T06:12:12.350Z,22.17
2018-01-22T06:14:40.594Z,22.70
2018-01-22T06:17:08.054Z,22.63
2018-01-22T06:19:35.533Z,22.90
2018-01-22T06:22:03.753Z,21.47
2018-01-22T06:24:31.212Z,21.80
2018-01-22T06:26:58.690Z,20.50
2018-01-22T06:29:26.170Z,20.53
2018-01-22T06:31:54.427Z,20.63
2018-01-22T06:34:21.902Z,20.80
2018-01-22T06:36:50.154Z,20.07
2018-01-22T06:39:17.617Z,21.03
2018-01-22T06:41:45.098Z,18.70
2018-01-22T06:44:13.326Z,19.23
2018-01-22T06:46:40.818Z,21.10
2018-01-22T06:49:09.094Z,19.60
2018-01-22T06:51:36.554Z,22.80
2018-01-22T06:54:04.095Z,21.37
2018-01-22T06:56:31.718Z,22.40
2018-01-22T06:58:59.209Z,22.80
2018-01-22T07:01:26.674Z,21.93
2018-01-22T07:03:54.918Z,21.43
2018-01-22T07:06:22.390Z,20.70
2018-01-22T07:08:49.863Z,22.23
2018-01-22T07:11:17.334Z,22.27
2018-01-22T07:13:45.557Z,22.00
2018-01-22T07:16:13.059Z,22.17
2018-01-22T07:18:40.518Z,22.37
2018-01-22T07:21:08.764Z,23.47
2018-01-22T07:23:36.222Z,23.70
2018-01-22T07:26:03.697Z,24.10
2018-01-22T07:28:31.157Z,24.20
2018-01-22T07:30:59.409Z,24.03
2018-01-22T07:33:26.870Z,24.03
2018-01-22T07:35:54.389Z,23.17
2018-01-22T07:38:21.922Z,25.47
2018-01-22T07:40:50.138Z,24.97
2018-01-22T07:43:17.615Z,25.83
2018-01-22T07:45:46.598Z,27.30
2018-01-22T07:48:14.094Z,27.10
2018-01-22T07:50:42.340Z,27.40
2018-01-22T07:53:11.330Z,28.60
2018-01-22T07:55:38.861Z,30.07
2018-01-22T07:58:06.394Z,34.00
2018-01-22T08:00:33.865Z,38.73
2018-01-22T08:03:01.354Z,45.10
2018-01-22T08:05:28.838Z,48.93
2018-01-22T08:07:56.337Z,49.53
2018-01-22T08:10:23.897Z,48.30
2018-01-22T08:12:51.357Z,49.50
2018-01-22T08:15:18.913Z,48.60
2018-01-22T08:17:46.385Z,47.03
2018-01-22T08:20:13.861Z,45.50
2018-01-22T08:22:41.345Z,44.40
2018-01-22T08:25:09.642Z,41.70
2018-01-22T08:27:37.117Z,41.80
2018-01-22T08:30:04.579Z,41.67
2018-01-22T08:32:32.042Z,39.07
2018-01-22T08:34:59.517Z,38.80
2018-01-22T08:37:26.983Z,39.43
2018-01-22T08:39:54.454Z,38.50
2018-01-22T08:42:22.783Z,35.87
2018-01-22T08:44:50.256Z,36.90
2018-01-22T08:47:17.726Z,34.60
2018-01-22T08:49:45.203Z,35.10
2018-01-22T08:52:13.425Z,34.03
2018-01-22T08:54:40.898Z,34.20
2018-01-22T08:57:08.357Z,33.20
2018-01-22T08:59:35.826Z,31.40
2018-01-22T09:02:04.082Z,29.97
2018-01-22T09:04:31.546Z,29.87
2018-01-22T09:06:59.030Z,24.53
2018-01-22T09:09:26.509Z,25.60
2018-01-22T09:11:54.046Z,25.60
2018-01-22T09:14:21.522Z,24.03
2018-01-22T09:16:49.745Z,26.60
2018-01-22T09:19:17.238Z,23.00
2018-01-22T09:21:45.478Z,22.63
2018-01-22T09:24:12.942Z,23.60
2018-01-22T09:26:40.413Z,23.80
2018-01-22T09:29:08.690Z,23.77
2018-01-22T09:31:37.016Z,22.83
2018-01-22T09:34:04.474Z,23.50
2018-01-22T09:36:31.949Z,21.40
2018-01-22T09:38:59.401Z,19.43
2018-01-22T09:41:26.890Z,20.57
2018-01-22T09:43:55.126Z,19.30
2018-01-22T09:46:22.582Z,19.07
2018-01-22T09:48:50.062Z,18.87
2018-01-22T09:51:17.513Z,20.90
2018-01-22T09:53:44.995Z,19.10
2018-01-22T09:56:12.462Z,19.90
2018-01-22T09:58:40.673Z,19.37
2018-01-22T10:01:08.153Z,17.13
2018-01-22T10:03:35.614Z,17.43
2018-01-22T10:06:03.086Z,17.83
2018-01-22T10:08:30.550Z,18.10
2018-01-22T10:10:58.041Z,17.40
2018-01-22T10:13:25.514Z,17.07
2018-01-22T10:15:52.995Z,15.60
2018-01-22T10:18:20.477Z,16.00
2018-01-22T10:20:49.528Z,14.47
2018-01-22T10:23:17.078Z,15.70
2018-01-22T10:25:44.637Z,14.73
2018-01-22T10:28:12.195Z,14.03
2018-01-22T10:30:39.662Z,11.83
2018-01-22T10:33:07.211Z,11.63
2018-01-22T10:35:34.690Z,10.23
2018-01-22T10:38:02.166Z,9.77
2018-01-22T10:40:29.628Z,9.13
2018-01-22T10:42:57.105Z,8.50
2018-01-22T10:45:25.338Z,8.60
2018-01-22T10:47:52.810Z,8.90
2018-01-22T10:50:20.275Z,9.03
2018-01-22T10:52:47.785Z,8.23
2018-01-22T10:55:15.249Z,9.23
2018-01-22T10:57:42.723Z,8.67
2018-01-22T11:00:10.208Z,9.23
2018-01-22T11:02:37.682Z,10.03
2018-01-22T11:05:05.928Z,7.97
2018-01-22T11:07:33.440Z,8.70
2018-01-22T11:10:00.894Z,9.47
2018-01-22T11:12:28.454Z,9.10
2018-01-22T11:14:55.918Z,8.87
2018-01-22T11:17:23.386Z,8.70
2018-01-22T11:19:50.865Z,9.13
2018-01-22T11:22:18.326Z,10.07
2018-01-22T11:24:45.797Z,9.57
2018-01-22T11:27:14.054Z,10.00
2018-01-22T11:29:41.517Z,9.90
2018-01-22T11:32:09.019Z,9.30
2018-01-22T11:34:36.478Z,8.10
2018-01-22T11:37:03.947Z,7.53
2018-01-22T11:39:31.414Z,7.77
2018-01-22T11:41:58.954Z,7.57
2018-01-22T11:44:26.393Z,7.60
2018-01-22T11:46:53.873Z,7.20
2018-01-22T11:49:21.335Z,8.70
2018-01-22T11:51:48.789Z,7.17
2018-01-22T11:54:16.272Z,6.83
2018-01-22T11:56:43.735Z,8.27
2018-01-22T11:59:11.206Z,7.97
2018-01-22T12:01:39.434Z,6.20
2018-01-22T12:04:06.909Z,6.70
2018-01-22T12:06:34.362Z,7.43
2018-01-22T12:09:01.868Z,6.70
2018-01-22T12:11:29.305Z,7.10
2018-01-22T12:13:57.539Z,6.37
2018-01-22T12:16:25.020Z,6.17
2018-01-22T12:18:52.464Z,6.50
2018-01-22T12:21:19.950Z,7.00
2018-01-22T12:23:47.422Z,6.93
2018-01-22T12:26:15.672Z,6.43
2018-01-22T12:28:43.139Z,7.17
2018-01-22T12:31:10.638Z,6.20
2018-01-22T12:33:38.087Z,6.30
2018-01-22T12:36:05.541Z,6.03
2018-01-22T12:38:33.030Z,6.97
2018-01-22T12:41:00.507Z,6.50
2018-01-22T12:43:28.007Z,7.23
2018-01-22T12:45:55.457Z,6.90
2018-01-22T12:48:22.934Z,6.67
2018-01-22T12:50:50.397Z,7.50
2018-01-22T12:53:17.870Z,6.43
2018-01-22T12:55:45.338Z,6.23
2018-01-22T12:58:12.781Z,6.60
2018-01-22T13:00:40.249Z,6.93
2018-01-22T13:03:07.729Z,8.40
2018-01-22T13:05:35.252Z,6.47
2018-01-22T13:08:03.430Z,7.50
2018-01-22T13:10:30.897Z,6.83
2018-01-22T13:12:58.402Z,6.47
2018-01-22T13:15:25.851Z,5.97
2018-01-22T13:17:53.329Z,7.10
2018-01-22T13:20:20.783Z,6.27
2018-01-22T13:22:48.265Z,7.47
2018-01-22T13:25:15.725Z,5.77
2018-01-22T13:27:43.203Z,6.17
2018-01-22T13:30:10.758Z,6.80
2018-01-22T13:32:38.213Z,6.40
2018-01-22T13:35:05.718Z,6.63
2018-01-22T13:37:33.183Z,6.37
2018-01-22T13:40:06.390Z,6.20
2018-01-22T13:42:33.854Z,5.27
2018-01-22T13:45:01.344Z,5.20
2018-01-22T13:47:28.805Z,5.70
2018-01-22T13:49:57.031Z,6.17
2018-01-22T13:52:24.503Z,6.50
2018-01-22T13:54:51.986Z,5.13
2018-01-22T13:57:19.490Z,4.87
2018-01-22T13:59:47.047Z,5.23
2018-01-22T14:02:14.514Z,5.37
2018-01-22T14:04:41.965Z,4.93
2018-01-22T14:07:09.442Z,5.40
2018-01-22T14:09:36.894Z,4.67
2018-01-22T14:12:04.362Z,5.67
2018-01-22T14:14:31.817Z,5.23
2018-01-22T14:17:00.171Z,5.63
2018-01-22T14:19:27.641Z,4.93
2018-01-22T14:21:55.099Z,5.37
2018-01-22T14:24:22.579Z,5.43
2018-01-22T14:26:50.150Z,5.63
2018-01-22T14:29:17.604Z,5.10
2018-01-22T14:31:45.099Z,5.80
2018-01-22T14:34:12.570Z,5.97
2018-01-22T14:36:40.027Z,5.27
2018-01-22T14:39:07.531Z,6.17
2018-01-22T14:41:34.974Z,5.83
2018-01-22T14:44:03.946Z,5.60
2018-01-22T14:46:31.409Z,6.07
2018-01-22T14:48:58.870Z,5.67
2018-01-22T14:51:26.344Z,5.80
2018-01-22T14:53:53.821Z,6.10
2018-01-22T14:56:22.045Z,6.90
2018-01-22T14:58:49.582Z,6.83
2018-01-22T15:01:17.142Z,5.87
2018-01-22T15:03:44.610Z,6.70
2018-01-22T15:06:12.096Z,6.70
2018-01-22T15:08:39.574Z,5.90
2018-01-22T15:11:07.819Z,7.03
2018-01-22T15:13:35.266Z,7.53
2018-01-22T15:16:02.748Z,7.00
2018-01-22T15:18:30.240Z,6.70
2018-01-22T15:20:57.758Z,7.20
2018-01-22T15:23:25.187Z,7.27
2018-01-22T15:25:52.666Z,7.60
2018-01-22T15:28:20.137Z,6.97
2018-01-22T15:30:47.617Z,7.57
2018-01-22T15:33:15.842Z,7.20
2018-01-22T15:35:43.318Z,8.30
2018-01-22T15:38:10.777Z,7.43
2018-01-22T15:40:38.238Z,8.17
2018-01-22T15:43:05.706Z,7.73
2018-01-22T15:45:33.963Z,6.60
2018-01-22T15:48:01.471Z,7.10
2018-01-22T15:50:28.958Z,6.73
2018-01-22T15:52:56.433Z,7.07
2018-01-22T15:55:24.689Z,8.00
2018-01-22T15:57:52.164Z,6.83
2018-01-22T16:00:19.627Z,6.87
2018-01-22T16:02:47.085Z,6.80
2018-01-22T16:05:15.317Z,6.57
2018-01-22T16:07:42.785Z,7.50
2018-01-22T16:10:10.250Z,6.70
2018-01-22T16:12:37.713Z,7.10
2018-01-22T16:15:05.939Z,6.63
2018-01-22T16:17:33.422Z,6.83
2018-01-22T16:20:00.883Z,6.70
2018-01-22T16:22:28.359Z,6.47
2018-01-22T16:24:55.817Z,6.80
2018-01-22T16:27:23.311Z,6.73
2018-01-22T16:29:50.785Z,6.77
2018-01-22T16:32:18.298Z,6.70
2018-01-22T16:34:46.526Z,7.03
2018-01-22T16:37:14.045Z,6.93
2018-01-22T16:39:42.279Z,7.70
2018-01-22T16:42:09.733Z,8.53
2018-01-22T16:44:37.209Z,6.80
2018-01-22T16:47:11.796Z,7.67
2018-01-22T16:49:39.269Z,7.87
2018-01-22T16:52:06.737Z,7.10
2018-01-22T16:54:34.213Z,7.50
2018-01-22T16:57:02.447Z,8.60
2018-01-22T16:59:29.930Z,6.90
2018-01-22T17:01:57.443Z,6.93
2018-01-22T17:04:24.880Z,7.23
2018-01-22T17:06:52.338Z,8.00
2018-01-22T17:09:19.813Z,8.50
2018-01-22T17:11:47.271Z,8.03
2018-01-22T17:14:14.778Z,8.83
2018-01-22T17:16:42.262Z,10.00
2018-01-22T17:19:10.477Z,7.43
2018-01-22T17:21:37.959Z,7.80
2018-01-22T17:24:05.422Z,8.07
2018-01-22T17:26:32.927Z,7.97
2018-01-22T17:29:00.378Z,9.27
2018-01-22T17:31:27.901Z,7.53
2018-01-22T17:33:55.357Z,8.67
2018-01-22T17:36:23.613Z,8.70
2018-01-22T17:38:51.190Z,8.93
2018-01-22T17:41:19.545Z,10.00
2018-01-22T17:43:47.044Z,8.30
2018-01-22T17:46:15.645Z,7.23
2018-01-22T17:48:43.292Z,8.10
2018-01-22T17:51:11.656Z,7.30
2018-01-22T17:53:41.357Z,8.60
2018-01-22T17:56:10.960Z,8.90
2018-01-22T17:58:39.279Z,8.57
2018-01-22T18:01:06.753Z,8.73
2018-01-22T18:03:34.238Z,9.00
2018-01-22T18:06:01.718Z,7.73
2018-01-22T18:08:29.969Z,9.40
2018-01-22T18:10:57.606Z,9.30
2018-01-22T18:13:25.882Z,9.47
2018-01-22T18:15:53.368Z,9.00
2018-01-22T18:18:20.830Z,9.73
2018-01-22T18:20:49.056Z,10.23
2018-01-22T18:23:16.551Z,8.50
2018-01-22T18:25:43.993Z,9.67
2018-01-22T18:28:11.473Z,10.27
2018-01-22T18:30:38.935Z,8.70
2018-01-22T18:33:07.190Z,9.70
2018-01-22T18:35:34.663Z,10.83
2018-01-22T18:38:02.127Z,9.17
2018-01-22T18:40:30.369Z,10.00
2018-01-22T18:42:57.859Z,8.53
2018-01-22T18:45:26.091Z,8.97
2018-01-22T18:47:53.568Z,9.33
2018-01-22T18:50:21.033Z,9.60
2018-01-22T18:52:48.482Z,9.77
2018-01-22T18:55:15.967Z,8.70
2018-01-22T18:57:44.183Z,8.90
2018-01-22T19:00:11.674Z,10.40
2018-01-22T19:02:39.133Z,9.97
2018-01-22T19:05:07.370Z,8.83
2018-01-22T19:07:34.867Z,10.10
2018-01-22T19:10:02.361Z,9.70
2018-01-22T19:12:29.830Z,8.97
2018-01-22T19:14:57.311Z,9.63
2018-01-22T19:17:24.787Z,9.10
2018-01-22T19:19:53.014Z,8.50
2018-01-22T19:22:20.494Z,10.23
2018-01-22T19:24:47.957Z,9.87
2018-01-22T19:27:15.434Z,8.87
2018-01-22T19:29:42.890Z,9.77
2018-01-22T19:32:10.358Z,10.53
2018-01-22T19:34:37.825Z,9.70
2018-01-22T19:37:05.289Z,10.17
2018-01-22T19:39:32.782Z,10.43
2018-01-22T19:42:00.246Z,10.50
2018-01-22T19:44:27.790Z,9.43
2018-01-22T19:46:56.116Z,10.67
2018-01-22T19:49:23.576Z,10.43
2018-01-22T19:51:52.802Z,9.07
2018-01-22T19:54:20.293Z,9.37
2018-01-22T19:56:47.765Z,8.30
2018-01-22T19:59:15.233Z,8.50
2018-01-22T20:01:42.717Z,9.60
2018-01-22T20:04:10.203Z,10.23
2018-01-22T20:06:37.674Z,10.13
2018-01-22T20:09:05.166Z,9.93
2018-01-22T20:11:32.636Z,10.27
2018-01-22T20:14:00.860Z,9.63
2018-01-22T20:16:28.366Z,10.60
2018-01-22T20:18:56.607Z,9.90
2018-01-22T20:21:24.070Z,9.67
2018-01-22T20:23:51.571Z,9.37
2018-01-22T20:26:19.045Z,9.10
2018-01-22T20:28:46.534Z,9.97
2018-01-22T20:31:14.014Z,8.93
2018-01-22T20:33:41.502Z,8.90
2018-01-22T20:36:09.734Z,8.10
2018-01-22T20:38:37.210Z,8.57
2018-01-22T20:41:05.462Z,8.33
2018-01-22T20:43:32.911Z,9.60
2018-01-22T20:46:00.398Z,8.03
2018-01-22T20:48:28.652Z,8.00
2018-01-22T20:50:56.130Z,9.50
2018-01-22T20:53:23.571Z,8.23
2018-01-22T20:55:51.065Z,7.20
2018-01-22T20:58:18.582Z,7.40
2018-01-22T21:00:46.096Z,8.07
2018-01-22T21:03:13.553Z,7.47
2018-01-22T21:05:41.026Z,9.00
2018-01-22T21:08:08.508Z,6.30
2018-01-22T21:10:36.730Z,8.70
2018-01-22T21:13:04.199Z,7.10
2018-01-22T21:15:31.669Z,6.70
2018-01-22T21:17:59.138Z,9.70
2018-01-22T21:20:26.627Z,8.27
2018-01-22T21:22:54.090Z,7.90
2018-01-22T21:25:22.358Z,7.13
2018-01-22T21:27:51.338Z,6.70
2018-01-22T21:30:18.822Z,6.83
2018-01-22T21:32:46.301Z,7.50
2018-01-22T21:35:13.810Z,6.80
2018-01-22T21:37:41.277Z,7.40
2018-01-22T21:40:09.518Z,6.93
2018-01-22T21:42:36.969Z,6.93
2018-01-22T21:45:04.447Z,6.70
2018-01-22T21:47:31.908Z,6.27
2018-01-22T21:49:59.369Z,6.50
2018-01-22T21:52:26.844Z,6.47
2018-01-22T21:54:55.086Z,7.50
2018-01-22T21:57:22.544Z,8.43
2018-01-22T21:59:50.019Z,7.80
2018-01-22T22:02:17.514Z,7.17
2018-01-22T22:04:44.962Z,7.83
2018-01-22T22:07:12.450Z,8.30
2018-01-22T22:09:39.910Z,7.97
2018-01-22T22:12:07.389Z,9.03
2018-01-22T22:14:35.642Z,7.37
2018-01-22T22:17:03.099Z,7.43
2018-01-22T22:19:30.585Z,8.50
2018-01-22T22:21:58.033Z,9.87
2018-01-22T22:24:26.999Z,9.13
2018-01-22T22:26:54.498Z,8.27
2018-01-22T22:29:22.722Z,7.37
2018-01-22T22:31:50.189Z,7.80
2018-01-22T22:34:17.786Z,8.07
2018-01-22T22:36:46.050Z,8.60
2018-01-22T22:39:13.510Z,8.53
2018-01-22T22:41:41.734Z,10.53
2018-01-22T22:44:09.296Z,8.50
2018-01-22T22:46:36.763Z,7.80
2018-01-22T22:49:04.213Z,9.13
2018-01-22T22:51:31.706Z,8.40
2018-01-22T22:53:59.194Z,10.87
2018-01-22T22:56:27.418Z,7.87
2018-01-22T22:58:54.897Z,8.13
2018-01-22T23:01:22.366Z,8.77
2018-01-22T23:03:50.581Z,9.40
2018-01-22T23:06:18.093Z,8.53
2018-01-22T23:08:45.550Z,9.07
2018-01-22T23:11:13.773Z,7.93
2018-01-22T23:13:41.241Z,9.00
2018-01-22T23:16:08.725Z,9.30
2018-01-22T23:18:36.182Z,8.87
2018-01-22T23:21:05.161Z,8.70
2018-01-22T23:23:32.623Z,9.40
2018-01-22T23:26:00.097Z,8.70
2018-01-22T23:28:28.329Z,9.53
2018-01-22T23:30:55.797Z,9.17
2018-01-22T23:33:23.277Z,10.17
2018-01-22T23:35:50.745Z,9.60
2018-01-22T23:38:18.970Z,9.57
2018-01-22T23:40:46.437Z,9.20
2018-01-22T23:43:13.918Z,8.30
2018-01-22T23:45:41.378Z,8.50
2018-01-22T23:48:08.845Z,10.47
2018-01-22T23:50:36.309Z,10.43
2018-01-22T23:53:03.785Z,10.10
2018-01-22T23:55:31.241Z,8.70
2018-01-22T23:57:58.725Z,10.00
